createdAt,value
2022-11-29T00:01:01.556Z,88.25
2022-11-29T00:03:28.994Z,88.16
2022-11-29T00:05:56.155Z,88.11
2022-11-29T00:08:23.996Z,88.19
2022-11-29T00:10:50.937Z,88.33
2022-11-29T00:13:18.388Z,88.10
2022-11-29T00:15:45.113Z,88.50
2022-11-29T00:18:12.074Z,88.24
2022-11-29T00:20:39.656Z,88.64
2022-11-29T00:23:06.499Z,88.69
2022-11-29T00:25:33.398Z,88.48
2022-11-29T00:28:00.209Z,89.03
2022-11-29T00:30:28.137Z,88.83
2022-11-29T00:32:55.090Z,88.62
2022-11-29T00:35:21.781Z,88.96
2022-11-29T00:37:48.609Z,88.81
2022-11-29T00:40:15.348Z,89.05
2022-11-29T00:42:42.129Z,88.83
2022-11-29T00:45:09.361Z,88.83
2022-11-29T00:47:36.189Z,88.86
2022-11-29T00:50:03.705Z,89.20
2022-11-29T00:52:30.531Z,89.10
2022-11-29T00:54:57.303Z,89.16
2022-11-29T00:57:24.137Z,89.16
2022-11-29T00:59:50.873Z,89.08
2022-11-29T01:02:17.642Z,89.28
2022-11-29T01:04:44.800Z,89.24
2022-11-29T01:07:11.853Z,88.90
2022-11-29T01:09:38.622Z,89.29
2022-11-29T01:12:05.495Z,89.52
2022-11-29T01:14:32.517Z,89.02
2022-11-29T01:16:59.366Z,89.25
2022-11-29T01:19:26.168Z,88.91
2022-11-29T01:21:52.951Z,88.99
2022-11-29T01:24:19.782Z,89.35
2022-11-29T01:26:46.591Z,88.83
2022-11-29T01:29:13.827Z,89.65
2022-11-29T01:31:40.602Z,88.84
2022-11-29T01:34:07.740Z,88.97
2022-11-29T01:36:35.373Z,88.95
2022-11-29T01:39:05.241Z,89.27
2022-11-29T01:41:35.003Z,88.91
2022-11-29T01:44:26.882Z,88.94
2022-11-29T01:46:54.844Z,88.66
2022-11-29T01:49:28.181Z,88.63
2022-11-29T01:52:18.797Z,88.88
2022-11-29T01:54:50.304Z,88.67
2022-11-29T01:57:18.600Z,88.69
2022-11-29T01:59:52.556Z,88.85
2022-11-29T02:02:29.424Z,88.56
2022-11-29T02:04:59.035Z,88.73
2022-11-29T02:07:25.955Z,89.03
2022-11-29T02:09:53.018Z,89.16
2022-11-29T02:12:38.164Z,88.86
2022-11-29T02:15:36.067Z,89.00
2022-11-29T02:18:08.290Z,88.65
2022-11-29T02:20:59.560Z,88.48
2022-11-29T02:24:02.114Z,88.51
2022-11-29T02:26:40.677Z,88.85
2022-11-29T02:29:30.049Z,88.58
2022-11-29T02:32:34.359Z,88.69
2022-11-29T02:35:16.040Z,88.67
2022-11-29T02:38:11.270Z,88.60
2022-11-29T02:41:04.509Z,88.48
2022-11-29T02:43:58.940Z,88.91
2022-11-29T02:46:55.319Z,88.64
2022-11-29T02:49:45.550Z,88.56
2022-11-29T02:52:25.220Z,88.76
2022-11-29T02:55:15.381Z,88.64
2022-11-29T02:58:02.406Z,88.57
2022-11-29T03:00:35.992Z,89.03
2022-11-29T03:03:08.696Z,88.69
2022-11-29T03:05:53.541Z,89.09
2022-11-29T03:08:35.740Z,89.08
2022-11-29T03:11:26.664Z,89.06
2022-11-29T03:14:25.805Z,89.11
2022-11-29T03:17:20.240Z,89.25
2022-11-29T03:20:01.108Z,89.05
2022-11-29T03:22:30.662Z,89.04
2022-11-29T03:25:00.359Z,88.92
2022-11-29T03:27:31.304Z,89.14
2022-11-29T03:30:02.436Z,89.06
2022-11-29T03:33:02.795Z,89.18
2022-11-29T03:35:58.452Z,89.04
2022-11-29T03:38:45.000Z,88.89
2022-11-29T03:41:28.798Z,89.28
2022-11-29T03:44:03.450Z,89.44
2022-11-29T03:46:46.589Z,88.94
2022-11-29T03:49:38.348Z,89.05
2022-11-29T03:52:32.133Z,89.12
2022-11-29T03:55:32.337Z,88.97
2022-11-29T03:58:20.568Z,88.78
2022-11-29T04:00:50.290Z,89.19
2022-11-29T04:03:25.951Z,89.13
2022-11-29T04:06:13.843Z,89.35
2022-11-29T04:09:27.311Z,89.41
2022-11-29T04:12:12.071Z,89.23
2022-11-29T04:14:53.804Z,89.03
2022-11-29T04:17:49.062Z,88.74
2022-11-29T04:20:55.665Z,89.05
2022-11-29T04:23:47.195Z,88.70
2022-11-29T04:26:22.623Z,88.72
2022-11-29T04:28:55.132Z,88.98
2022-11-29T04:31:52.758Z,88.65
2022-11-29T04:34:37.648Z,88.74
2022-11-29T04:37:31.887Z,89.00
2022-11-29T04:40:20.387Z,88.96
2022-11-29T04:43:24.566Z,88.80
2022-11-29T04:46:03.495Z,89.05
2022-11-29T04:49:04.113Z,89.26
2022-11-29T04:51:30.839Z,89.20
2022-11-29T04:53:57.551Z,89.42
2022-11-29T04:56:32.987Z,89.03
2022-11-29T04:59:19.547Z,88.86
2022-11-29T05:02:05.789Z,89.14
2022-11-29T05:05:19.929Z,88.98
2022-11-29T05:07:59.724Z,89.28
2022-11-29T05:10:33.883Z,89.05
2022-11-29T05:13:32.743Z,88.92
2022-11-29T05:16:14.755Z,88.95
2022-11-29T05:18:56.787Z,89.21
2022-11-29T05:21:47.903Z,89.55
2022-11-29T05:24:20.624Z,89.43
2022-11-29T05:27:21.476Z,89.49
2022-11-29T05:29:56.862Z,89.90
2022-11-29T05:32:57.984Z,89.78
2022-11-29T05:35:51.186Z,89.95
2022-11-29T05:38:17.977Z,90.01
2022-11-29T05:41:00.225Z,90.28
2022-11-29T05:44:04.168Z,90.33
2022-11-29T05:46:43.089Z,90.12
2022-11-29T05:49:38.533Z,90.22
2022-11-29T05:52:24.919Z,90.27
2022-11-29T05:55:17.368Z,90.79
2022-11-29T05:57:55.476Z,91.03
2022-11-29T06:00:22.828Z,90.90
2022-11-29T06:03:03.305Z,90.92
2022-11-29T06:05:59.280Z,90.72
2022-11-29T06:08:40.153Z,90.86
2022-11-29T06:11:17.538Z,91.32
2022-11-29T06:14:02.400Z,91.02
2022-11-29T06:16:50.759Z,91.14
2022-11-29T06:19:48.512Z,91.14
2022-11-29T06:22:42.573Z,91.45
2022-11-29T06:25:12.292Z,91.34
2022-11-29T06:28:13.875Z,91.81
2022-11-29T06:31:04.527Z,91.62
2022-11-29T06:34:02.877Z,92.39
2022-11-29T06:36:40.123Z,92.20
2022-11-29T06:39:09.193Z,92.32
2022-11-29T06:41:36.590Z,92.52
2022-11-29T06:44:04.202Z,92.70
2022-11-29T06:46:44.165Z,92.86
2022-11-29T06:49:32.457Z,92.88
2022-11-29T06:52:39.475Z,93.28
2022-11-29T06:55:24.037Z,93.81
2022-11-29T06:58:28.347Z,93.53
2022-11-29T07:01:11.136Z,93.46
2022-11-29T07:04:20.644Z,93.96
2022-11-29T07:06:47.681Z,94.16
2022-11-29T07:09:17.758Z,94.23
2022-11-29T07:11:46.268Z,94.49
2022-11-29T07:14:13.611Z,94.40
2022-11-29T07:16:46.275Z,94.67
2022-11-29T07:19:24.971Z,94.53
2022-11-29T07:22:14.990Z,94.85
2022-11-29T07:24:50.783Z,94.63
2022-11-29T07:27:35.895Z,94.80
2022-11-29T07:30:11.772Z,94.35
2022-11-29T07:33:14.834Z,94.52
2022-11-29T07:35:53.880Z,94.46
2022-11-29T07:39:08.434Z,94.34
2022-11-29T07:42:00.587Z,94.33
2022-11-29T07:44:44.741Z,94.21
2022-11-29T07:47:12.177Z,94.03
2022-11-29T07:49:38.976Z,94.57
2022-11-29T07:52:05.784Z,94.22
2022-11-29T07:54:32.664Z,94.07
2022-11-29T07:56:59.438Z,93.86
2022-11-29T07:59:26.174Z,93.53
2022-11-29T08:01:53.051Z,93.82
2022-11-29T08:04:19.896Z,93.45
2022-11-29T08:06:46.658Z,92.86
2022-11-29T08:09:13.478Z,93.20
2022-11-29T08:11:40.402Z,93.51
2022-11-29T08:14:07.215Z,93.36
2022-11-29T08:16:34.480Z,93.24
2022-11-29T08:19:01.434Z,93.69
2022-11-29T08:21:28.193Z,93.41
2022-11-29T08:23:55.003Z,93.23
2022-11-29T08:26:24.451Z,93.32
2022-11-29T08:28:56.253Z,93.74
2022-11-29T08:31:23.234Z,93.29
2022-11-29T08:33:50.031Z,93.92
2022-11-29T08:36:19.626Z,93.41
2022-11-29T08:38:47.637Z,93.39
2022-11-29T08:41:16.184Z,92.98
2022-11-29T08:43:43.856Z,93.24
2022-11-29T08:46:16.690Z,93.15
2022-11-29T08:48:45.318Z,92.77
2022-11-29T08:51:12.141Z,93.35
2022-11-29T08:53:38.870Z,92.95
2022-11-29T08:56:31.768Z,92.65
2022-11-29T08:58:52.588Z,92.63
2022-11-29T09:01:20.068Z,92.84
2022-11-29T09:03:47.170Z,92.89
2022-11-29T09:06:15.531Z,92.95
2022-11-29T09:08:43.240Z,92.67
2022-11-29T09:11:21.074Z,92.69
2022-11-29T09:13:50.533Z,92.76
2022-11-29T09:16:20.915Z,92.01
2022-11-29T09:18:51.680Z,92.25
2022-11-29T09:21:19.603Z,92.53
2022-11-29T09:23:46.757Z,92.25
2022-11-29T09:26:18.698Z,91.91
2022-11-29T09:28:48.876Z,92.18
2022-11-29T09:31:16.685Z,92.17
2022-11-29T09:33:43.522Z,91.66
2022-11-29T09:36:11.517Z,91.46
2022-11-29T09:38:39.026Z,91.85
2022-11-29T09:41:21.097Z,92.01
2022-11-29T09:44:17.808Z,92.22
2022-11-29T09:46:58.819Z,91.43
2022-11-29T09:50:03.317Z,91.39
2022-11-29T09:53:17.722Z,91.28
2022-11-29T09:56:09.147Z,91.40
2022-11-29T09:58:57.594Z,91.65
2022-11-29T10:01:30.458Z,90.82
2022-11-29T10:04:02.599Z,90.37
2022-11-29T10:06:35.383Z,90.41
2022-11-29T10:09:14.591Z,90.77
2022-11-29T10:11:53.440Z,90.34
2022-11-29T10:14:27.167Z,90.13
2022-11-29T10:17:18.246Z,90.29
2022-11-29T10:19:50.062Z,90.39
2022-11-29T10:22:31.295Z,89.84
2022-11-29T10:25:01.579Z,89.61
2022-11-29T10:27:29.628Z,90.05
2022-11-29T10:29:58.883Z,89.54
2022-11-29T10:32:29.159Z,89.09
2022-11-29T10:34:55.945Z,89.57
2022-11-29T10:37:24.329Z,88.57
2022-11-29T10:39:59.310Z,89.29
2022-11-29T10:42:29.018Z,89.02
2022-11-29T10:44:56.389Z,88.66
2022-11-29T10:47:23.215Z,88.38
2022-11-29T10:49:50.080Z,88.66
2022-11-29T10:52:20.489Z,88.41
2022-11-29T10:54:49.795Z,88.74
2022-11-29T10:57:22.382Z,87.94
2022-11-29T11:00:02.924Z,87.94
2022-11-29T11:02:30.781Z,88.29
2022-11-29T11:04:58.944Z,88.13
2022-11-29T11:07:36.346Z,88.07
2022-11-29T11:10:06.307Z,88.63
2022-11-29T11:12:34.761Z,88.58
2022-11-29T11:15:24.960Z,87.76
2022-11-29T11:18:07.469Z,87.24
2022-11-29T11:20:41.756Z,87.24
2022-11-29T11:23:30.843Z,86.87
2022-11-29T11:26:09.175Z,86.82
2022-11-29T11:28:42.151Z,87.71
2022-11-29T11:31:11.537Z,86.76
2022-11-29T11:33:43.153Z,86.48
2022-11-29T11:36:13.130Z,86.00
2022-11-29T11:38:54.425Z,86.59
2022-11-29T11:41:31.876Z,86.26
2022-11-29T11:44:02.514Z,86.12
2022-11-29T11:46:50.105Z,86.52
2022-11-29T11:49:31.303Z,85.99
2022-11-29T11:52:00.636Z,86.63
2022-11-29T11:54:29.375Z,86.26
2022-11-29T11:56:56.576Z,86.70
2022-11-29T11:59:26.225Z,85.56
2022-11-29T12:01:53.369Z,86.12
2022-11-29T12:04:35.715Z,86.01
2022-11-29T12:07:09.288Z,85.61
2022-11-29T12:09:42.378Z,84.33
2022-11-29T12:12:26.083Z,85.34
2022-11-29T12:14:56.579Z,85.21
2022-11-29T12:17:38.320Z,84.99
2022-11-29T12:20:44.715Z,84.34
2022-11-29T12:23:11.454Z,84.71
2022-11-29T12:25:51.942Z,84.94
2022-11-29T12:28:21.095Z,84.61
2022-11-29T12:31:11.383Z,83.32
2022-11-29T12:34:06.005Z,83.22
2022-11-29T12:37:06.775Z,83.59
2022-11-29T12:39:42.306Z,83.47
2022-11-29T12:42:27.735Z,83.15
2022-11-29T12:45:00.618Z,82.91
2022-11-29T12:47:47.483Z,82.63
2022-11-29T12:50:23.235Z,82.78
2022-11-29T12:53:24.022Z,82.67
2022-11-29T12:56:25.594Z,82.70
2022-11-29T12:59:04.265Z,81.47
2022-11-29T13:01:30.991Z,81.49
2022-11-29T13:04:11.741Z,81.49
2022-11-29T13:07:05.611Z,81.11
2022-11-29T13:09:44.864Z,81.90
2022-11-29T13:12:17.364Z,80.23
2022-11-29T13:14:50.289Z,79.86
2022-11-29T13:18:10.129Z,78.40
2022-11-29T13:20:45.592Z,78.16
2022-11-29T13:23:15.171Z,79.35
2022-11-29T13:25:45.520Z,78.80
2022-11-29T13:28:25.643Z,78.43
2022-11-29T13:30:55.256Z,79.21
2022-11-29T13:33:30.916Z,79.00
2022-11-29T13:36:34.194Z,78.99
2022-11-29T13:39:34.724Z,79.26
2022-11-29T13:42:24.783Z,78.55
2022-11-29T13:45:04.438Z,78.19
2022-11-29T13:47:31.428Z,79.04
2022-11-29T13:50:00.400Z,79.02
2022-11-29T13:52:47.305Z,78.70
2022-11-29T13:55:13.982Z,79.45
2022-11-29T13:58:28.474Z,79.83
2022-11-29T14:01:01.560Z,79.75
2022-11-29T14:03:36.013Z,79.93
2022-11-29T14:06:10.773Z,79.86
2022-11-29T14:09:17.765Z,79.44
2022-11-29T14:11:42.410Z,80.07
2022-11-29T14:14:17.173Z,79.50
2022-11-29T14:16:44.222Z,79.77
2022-11-29T14:19:10.943Z,79.07
2022-11-29T14:21:56.208Z,79.03
2022-11-29T14:24:54.965Z,79.02
2022-11-29T14:27:21.701Z,78.72
2022-11-29T14:29:48.418Z,78.77
2022-11-29T14:32:27.147Z,78.08
2022-11-29T14:35:02.920Z,78.93
2022-11-29T14:37:37.324Z,78.34
2022-11-29T14:40:18.117Z,78.35
2022-11-29T14:42:48.517Z,78.83
2022-11-29T14:45:24.683Z,78.63
2022-11-29T14:47:53.339Z,78.98
2022-11-29T14:50:34.190Z,78.80
2022-11-29T14:53:02.151Z,79.01
2022-11-29T14:55:32.892Z,79.09
2022-11-29T14:58:02.391Z,79.13
2022-11-29T15:00:42.840Z,80.01
2022-11-29T15:03:18.323Z,79.55
2022-11-29T15:06:07.018Z,79.90
2022-11-29T15:08:52.830Z,79.87
2022-11-29T15:11:35.581Z,80.94
2022-11-29T15:14:19.406Z,81.65
2022-11-29T15:17:04.056Z,81.67
2022-11-29T15:20:05.738Z,82.86
2022-11-29T15:22:51.798Z,83.73
2022-11-29T15:25:22.988Z,83.51
2022-11-29T15:27:54.791Z,83.78
2022-11-29T15:30:35.559Z,83.81
2022-11-29T15:33:06.367Z,83.67
2022-11-29T15:35:35.186Z,84.27
2022-11-29T15:38:02.479Z,84.70
2022-11-29T15:40:31.626Z,85.04
2022-11-29T15:43:21.883Z,85.24
2022-11-29T15:45:53.775Z,84.37
2022-11-29T15:48:26.413Z,84.83
2022-11-29T15:51:17.584Z,85.14
2022-11-29T15:54:00.405Z,85.07
2022-11-29T15:56:50.855Z,84.72
2022-11-29T15:59:39.212Z,85.01
2022-11-29T16:02:28.036Z,85.46
2022-11-29T16:05:03.104Z,85.54
2022-11-29T16:07:31.170Z,85.65
2022-11-29T16:10:03.818Z,85.20
2022-11-29T16:12:53.358Z,85.45
2022-11-29T16:15:33.153Z,85.89
2022-11-29T16:18:12.637Z,85.84
2022-11-29T16:20:41.167Z,85.72
2022-11-29T16:23:08.245Z,86.17
2022-11-29T16:25:53.829Z,86.50
2022-11-29T16:28:21.288Z,86.37
2022-11-29T16:30:48.809Z,86.30
2022-11-29T16:33:23.661Z,86.31
2022-11-29T16:35:51.598Z,86.55
2022-11-29T16:38:21.808Z,86.61
2022-11-29T16:41:20.899Z,86.75
2022-11-29T16:43:52.164Z,86.95
2022-11-29T16:46:21.919Z,86.77
2022-11-29T16:48:57.016Z,86.47
2022-11-29T16:51:29.553Z,86.91
2022-11-29T16:54:22.946Z,87.29
2022-11-29T16:56:55.574Z,86.99
2022-11-29T16:59:28.081Z,86.96
2022-11-29T17:01:57.153Z,87.01
2022-11-29T17:04:25.377Z,87.11
2022-11-29T17:06:54.349Z,87.26
2022-11-29T17:09:27.866Z,87.32
2022-11-29T17:11:56.531Z,87.49
2022-11-29T17:14:23.492Z,87.32
2022-11-29T17:16:50.909Z,87.86
2022-11-29T17:19:22.195Z,87.40
2022-11-29T17:21:50.419Z,87.84
2022-11-29T17:24:20.202Z,87.70
2022-11-29T17:26:47.429Z,87.63
2022-11-29T17:29:16.580Z,88.04
2022-11-29T17:31:45.186Z,88.16
2022-11-29T17:34:13.571Z,87.70
2022-11-29T17:36:40.354Z,88.11
2022-11-29T17:39:08.047Z,88.13
2022-11-29T17:41:36.107Z,88.90
2022-11-29T17:44:04.622Z,88.09
2022-11-29T17:46:34.848Z,88.32
2022-11-29T17:49:04.783Z,88.47
2022-11-29T17:54:21.528Z,88.31
2022-11-29T17:56:48.758Z,89.16
2022-11-29T17:59:16.515Z,89.02
2022-11-29T18:01:43.866Z,88.52
2022-11-29T18:04:12.159Z,89.78
2022-11-29T18:06:42.388Z,88.46
2022-11-29T18:09:12.371Z,87.97
2022-11-29T18:11:47.723Z,87.97
2022-11-29T18:14:25.928Z,87.84
2022-11-29T18:16:53.361Z,88.52
2022-11-29T18:19:22.698Z,88.74
2022-11-29T18:21:51.654Z,89.07
2022-11-29T18:24:20.242Z,88.52
2022-11-29T18:26:47.932Z,89.24
2022-11-29T18:29:15.660Z,89.13
2022-11-29T18:31:45.584Z,89.37
2022-11-29T18:34:14.627Z,88.83
2022-11-29T18:36:45.252Z,89.06
2022-11-29T18:39:18.371Z,88.09
2022-11-29T18:41:51.286Z,89.08
2022-11-29T18:44:20.866Z,89.46
2022-11-29T18:46:48.621Z,88.90
2022-11-29T18:49:18.274Z,89.59
2022-11-29T18:51:47.246Z,90.00
2022-11-29T18:54:16.487Z,89.38
2022-11-29T18:56:45.777Z,89.63
2022-11-29T18:59:15.950Z,89.84
2022-11-29T19:01:45.491Z,89.72
2022-11-29T19:04:17.303Z,89.86
2022-11-29T19:06:46.619Z,89.25
2022-11-29T19:09:17.912Z,89.73
2022-11-29T19:11:45.771Z,89.33
2022-11-29T19:14:13.718Z,90.08
2022-11-29T19:16:47.382Z,89.50
2022-11-29T19:19:16.570Z,89.55
2022-11-29T19:21:45.378Z,89.57
2022-11-29T19:24:15.288Z,89.52
2022-11-29T19:26:46.194Z,89.22
2022-11-29T19:29:14.975Z,89.05
2022-11-29T19:31:47.181Z,88.97
2022-11-29T19:34:15.370Z,89.21
2022-11-29T19:36:44.557Z,89.70
2022-11-29T19:39:17.311Z,89.72
2022-11-29T19:41:47.820Z,89.32
2022-11-29T19:44:15.985Z,90.33
2022-11-29T19:46:46.324Z,90.34
2022-11-29T19:49:14.577Z,90.27
2022-11-29T19:51:45.299Z,89.68
2022-11-29T19:54:14.468Z,90.51
2022-11-29T19:56:42.721Z,90.52
2022-11-29T19:59:16.750Z,90.10
2022-11-29T20:01:45.512Z,91.13
2022-11-29T20:04:14.331Z,91.36
2022-11-29T20:06:42.629Z,90.54
2022-11-29T20:09:13.914Z,90.69
2022-11-29T20:11:43.339Z,90.65
2022-11-29T20:14:14.022Z,91.40
2022-11-29T20:16:42.267Z,90.88
2022-11-29T20:19:13.949Z,90.64
2022-11-29T20:21:50.582Z,90.99
2022-11-29T20:24:19.277Z,91.01
2022-11-29T20:26:49.965Z,90.90
2022-11-29T20:29:21.820Z,90.83
2022-11-29T20:31:51.345Z,90.76
2022-11-29T20:34:21.613Z,90.33
2022-11-29T20:37:15.725Z,91.58
2022-11-29T20:39:55.883Z,91.09
2022-11-29T20:42:48.874Z,91.47
2022-11-29T20:45:18.272Z,91.25
2022-11-29T20:47:57.209Z,91.30
2022-11-29T20:50:31.119Z,91.30
2022-11-29T20:53:08.584Z,91.70
2022-11-29T20:55:36.463Z,91.39
2022-11-29T20:58:10.320Z,91.73
2022-11-29T21:00:39.007Z,91.49
2022-11-29T21:03:06.569Z,91.40
2022-11-29T21:05:34.366Z,91.30
2022-11-29T21:08:07.073Z,91.51
2022-11-29T21:10:36.008Z,91.64
2022-11-29T21:13:04.719Z,91.53
2022-11-29T21:15:32.550Z,91.63
2022-11-29T21:18:01.011Z,91.49
2022-11-29T21:20:28.709Z,91.44
2022-11-29T21:23:34.804Z,91.50
2022-11-29T21:26:07.646Z,91.43
2022-11-29T21:28:38.232Z,90.85
2022-11-29T21:31:05.989Z,91.69
2022-11-29T21:33:33.424Z,91.49
2022-11-29T21:36:00.428Z,90.86
2022-11-29T21:38:27.696Z,91.48
2022-11-29T21:40:54.456Z,91.76
2022-11-29T21:43:28.735Z,91.50
2022-11-29T21:46:08.617Z,91.35
2022-11-29T21:48:35.464Z,92.45
2022-11-29T21:51:06.761Z,91.76
2022-11-29T21:53:35.710Z,91.79
2022-11-29T21:56:05.701Z,91.05
2022-11-29T21:58:34.676Z,91.45
2022-11-29T22:01:16.705Z,91.44
2022-11-29T22:03:44.438Z,91.27
2022-11-29T22:06:13.459Z,91.65
2022-11-29T22:08:41.398Z,91.06
2022-11-29T22:11:11.879Z,91.34
2022-11-29T22:13:40.339Z,91.47
2022-11-29T22:16:09.595Z,91.45
2022-11-29T22:18:37.852Z,91.38
2022-11-29T22:21:06.790Z,91.92
2022-11-29T22:23:34.245Z,91.46
2022-11-29T22:26:05.397Z,91.87
2022-11-29T22:28:32.534Z,91.06
2022-11-29T22:31:05.385Z,92.91
2022-11-29T22:33:33.096Z,91.79
2022-11-29T22:36:05.092Z,92.11
2022-11-29T22:38:32.093Z,92.22
2022-11-29T22:41:05.085Z,91.79
2022-11-29T22:43:33.588Z,92.12
2022-11-29T22:46:08.138Z,91.60
2022-11-29T22:48:39.096Z,91.83
2022-11-29T22:51:12.077Z,91.93
2022-11-29T22:53:40.951Z,92.08
2022-11-29T22:56:10.539Z,91.78
2022-11-29T22:58:37.429Z,91.34
2022-11-29T23:01:19.098Z,92.98
2022-11-29T23:03:48.599Z,92.24
2022-11-29T23:06:18.545Z,92.07
2022-11-29T23:08:47.481Z,92.91
2022-11-29T23:11:17.099Z,92.25
2022-11-29T23:13:44.739Z,92.44
2022-11-29T23:16:14.685Z,92.75
2022-11-29T23:18:41.770Z,93.09
2022-11-29T23:21:11.585Z,92.82
2022-11-29T23:23:38.613Z,92.16
2022-11-29T23:26:07.154Z,92.52
2022-11-29T23:28:35.855Z,93.21
2022-11-29T23:31:02.757Z,93.66
2022-11-29T23:33:29.554Z,93.10
2022-11-29T23:36:02.094Z,93.06
2022-11-29T23:38:28.910Z,93.33
2022-11-29T23:40:55.826Z,92.85
2022-11-29T23:43:22.824Z,92.91
2022-11-29T23:45:50.466Z,92.99
2022-11-29T23:48:17.353Z,93.04
2022-11-29T23:50:44.112Z,93.28
2022-11-29T23:53:15.568Z,94.01
2022-11-29T23:55:42.680Z,93.30
2022-11-29T23:58:10.740Z,93.49
